Time;durP1;ratioP1;P1;durP2;ratioP2;P2;SDS_P1;SDS_P2;PMS_P1;PMS_P2;Temp;Humidity;BMP_temperature;BMP_pressure;BME280_temperature;BME280_humidity;BME280_pressure;Samples;Min_cycle;Max_cycle;Signal;HPM_P1;HPM_P2
2022/07/31 00:01:15;;;;;;;4.95;4.45;;;19.10;99.90;;;;;;4130606;28;20042;-62
2022/07/31 00:03:16;;;;;;;5.10;4.60;;;19.10;99.90;;;;;;4143133;28;20042;-62
2022/07/31 00:05:17;;;;;;;7.22;5.00;;;19.20;99.90;;;;;;4145644;28;20100;-62
2022/07/31 00:07:18;;;;;;;5.78;4.95;;;19.10;99.90;;;;;;4143774;28;20037;-63
2022/07/31 00:09:20;;;;;;;6.40;4.97;;;19.20;99.90;;;;;;4143478;28;20037;-64
2022/07/31 00:11:21;;;;;;;5.03;4.63;;;19.20;99.90;;;;;;4132321;28;20030;-63
2022/07/31 00:13:22;;;;;;;5.40;4.80;;;19.20;99.90;;;;;;4128609;28;20467;-62
2022/07/31 00:15:23;;;;;;;5.65;4.88;;;19.20;99.90;;;;;;4129757;28;20027;-63
2022/07/31 00:17:24;;;;;;;6.00;5.20;;;19.20;99.90;;;;;;4129332;28;20088;-62
2022/07/31 00:19:25;;;;;;;6.15;5.55;;;19.20;99.90;;;;;;4129909;28;20108;-62
2022/07/31 00:21:27;;;;;;;7.82;4.93;;;19.20;99.90;;;;;;4128164;28;20098;-68
2022/07/31 00:23:28;;;;;;;5.18;4.68;;;19.20;99.90;;;;;;4160213;28;20075;-62
2022/07/31 00:25:30;;;;;;;6.25;4.07;;;19.20;99.90;;;;;;4128583;28;20375;-62
2022/07/31 00:27:31;;;;;;;4.80;4.30;;;19.10;99.90;;;;;;4129566;28;20434;-63
2022/07/31 00:29:33;;;;;;;5.22;4.72;;;19.20;99.90;;;;;;4128372;28;20078;-64
2022/07/31 00:31:34;;;;;;;4.80;4.40;;;19.20;99.90;;;;;;4129534;28;20050;-63
2022/07/31 00:33:35;;;;;;;5.38;4.75;;;19.20;99.90;;;;;;4129354;28;20447;-62
2022/07/31 00:35:36;;;;;;;4.80;4.40;;;19.20;99.90;;;;;;4129951;28;20046;-63
2022/07/31 00:37:37;;;;;;;5.05;4.30;;;19.10;99.90;;;;;;4129186;28;20522;-62
2022/07/31 00:39:38;;;;;;;6.55;5.90;;;19.10;99.90;;;;;;4144559;28;20088;-68
2022/07/31 00:41:41;;;;;;;6.18;5.03;;;19.00;99.90;;;;;;4145319;28;20030;-62
2022/07/31 00:43:43;;;;;;;6.63;5.75;;;18.90;99.90;;;;;;4144573;28;20133;-63
2022/07/31 00:45:44;;;;;;;6.63;5.65;;;18.90;99.90;;;;;;4145600;28;20022;-62
2022/07/31 00:47:45;;;;;;;6.10;5.50;;;18.90;99.90;;;;;;4144449;28;20076;-63
2022/07/31 00:49:46;;;;;;;6.68;5.97;;;18.80;99.90;;;;;;4145567;28;20029;-63
2022/07/31 00:51:48;;;;;;;7.57;5.85;;;18.70;99.90;;;;;;4144262;28;20038;-63
2022/07/31 00:53:49;;;;;;;11.77;5.95;;;18.70;99.90;;;;;;4143880;28;20091;-62
2022/07/31 00:55:50;;;;;;;6.28;5.70;;;18.70;99.90;;;;;;4144623;28;20057;-63
2022/07/31 00:57:51;;;;;;;5.78;5.28;;;18.60;99.90;;;;;;4145491;28;20044;-64
2022/07/31 00:59:52;;;;;;;6.63;5.10;;;18.60;99.90;;;;;;4144280;28;20026;-63
2022/07/31 01:01:54;;;;;;;5.32;4.82;;;18.70;99.90;;;;;;4143041;28;20034;-62
2022/07/31 01:03:55;;;;;;;5.93;5.32;;;18.70;99.90;;;;;;4144340;28;20038;-63
2022/07/31 01:05:57;;;;;;;5.28;4.30;;;18.70;99.90;;;;;;4142330;28;20073;-63
2022/07/31 01:07:58;;;;;;;5.68;5.07;;;18.80;99.90;;;;;;4128549;28;20022;-64
2022/07/31 01:10:05;;;;;;;4.80;4.30;;;18.80;99.90;;;;;;4130810;28;20441;-63
2022/07/31 01:12:17;;;;;;;5.30;4.72;;;18.80;99.90;;;;;;4145019;28;20037;-63
2022/07/31 01:14:26;;;;;;;7.43;5.43;;;18.80;99.90;;;;;;4144439;28;20474;-67
2022/07/31 01:16:34;;;;;;;5.88;5.03;;;18.80;99.90;;;;;;4144897;28;20034;-63
2022/07/31 01:18:37;;;;;;;4.93;4.53;;;18.80;99.90;;;;;;4144494;28;20441;-63
2022/07/31 01:20:42;;;;;;;5.25;4.75;;;18.80;99.90;;;;;;4145327;28;20081;-65
2022/07/31 01:22:46;;;;;;;5.97;4.88;;;18.80;99.90;;;;;;4143947;28;20581;-64
2022/07/31 01:25:27;;;;;;;5.30;4.80;;;18.80;99.90;;;;;;4143210;28;20072;-63
2022/07/31 01:27:43;;;;;;;3.92;3.63;;;18.80;99.90;;;;;;4144123;28;20026;-63
2022/07/31 01:29:48;;;;;;;4.45;4.07;;;18.80;99.90;;;;;;4112314;28;20447;-62
2022/07/31 01:32:05;;;;;;;4.43;4.03;;;18.80;99.90;;;;;;4112309;28;20101;-63
2022/07/31 01:34:08;;;;;;;3.83;3.50;;;18.80;99.90;;;;;;4112602;28;20098;-63
2022/07/31 01:36:15;;;;;;;4.40;4.00;;;18.80;99.90;;;;;;4112241;28;20419;-63
2022/07/31 01:38:25;;;;;;;4.25;3.80;;;18.80;99.90;;;;;;4115475;28;20055;-62
2022/07/31 01:40:36;;;;;;;4.57;4.18;;;18.80;99.90;;;;;;4128407;28;20085;-63
2022/07/31 01:42:43;;;;;;;4.35;3.95;;;18.90;99.90;;;;;;4131210;28;20026;-63
2022/07/31 01:44:53;;;;;;;4.40;4.00;;;18.90;99.90;;;;;;4131001;28;20030;-62
2022/07/31 01:46:57;;;;;;;5.50;4.53;;;19.00;99.90;;;;;;4131284;28;20434;-63
2022/07/31 01:48:59;;;;;;;4.53;4.13;;;19.00;99.90;;;;;;4131144;28;20042;-63
2022/07/31 01:51:01;;;;;;;4.50;4.10;;;19.00;99.90;;;;;;4131409;28;20053;-62
2022/07/31 01:53:05;;;;;;;4.57;4.18;;;19.10;99.90;;;;;;4131851;28;20030;-62
2022/07/31 01:55:09;;;;;;;4.70;4.22;;;19.20;99.90;;;;;;4131726;28;20092;-63
2022/07/31 01:57:12;;;;;;;4.53;4.13;;;19.20;99.90;;;;;;4130862;28;20081;-62
2022/07/31 01:59:14;;;;;;;4.15;3.58;;;19.20;99.90;;;;;;4132031;28;20058;-63
2022/07/31 02:01:17;;;;;;;4.53;4.13;;;19.20;99.90;;;;;;4146884;28;20459;-62
2022/07/31 02:03:19;;;;;;;4.85;4.35;;;19.20;99.90;;;;;;4148411;28;20030;-63
2022/07/31 02:05:22;;;;;;;6.55;5.15;;;19.30;99.90;;;;;;4146865;28;20092;-63
2022/07/31 02:07:24;;;;;;;4.53;4.13;;;19.30;99.90;;;;;;4147777;28;20076;-64
2022/07/31 02:09:27;;;;;;;5.20;4.53;;;19.30;99.90;;;;;;4146946;28;20490;-63
2022/07/31 02:11:29;;;;;;;5.13;4.45;;;19.30;99.90;;;;;;4145676;28;20473;-65
2022/07/31 02:13:31;;;;;;;5.90;5.30;;;19.30;99.90;;;;;;4145250;28;20075;-63
2022/07/31 02:15:34;;;;;;;10.00;6.47;;;19.30;99.90;;;;;;4131551;28;20030;-66
2022/07/31 02:17:36;;;;;;;12.00;6.63;;;19.30;99.90;;;;;;4130407;28;20069;-66
2022/07/31 02:19:39;;;;;;;9.00;7.95;;;19.30;99.90;;;;;;4131253;28;20042;-68
2022/07/31 02:21:41;;;;;;;15.85;11.57;;;19.30;99.90;;;;;;4130421;28;20102;-63
2022/07/31 02:23:42;;;;;;;18.55;9.23;;;19.30;99.90;;;;;;4130842;28;20069;-71
2022/07/31 02:25:45;;;;;;;14.43;7.13;;;19.30;99.90;;;;;;4130899;28;20022;-64
2022/07/31 02:27:47;;;;;;;11.15;6.03;;;19.20;99.90;;;;;;4130699;28;20085;-65
2022/07/31 02:29:48;;;;;;;14.77;6.85;;;19.10;99.90;;;;;;4131099;28;20092;-65
2022/07/31 02:31:51;;;;;;;14.40;6.97;;;19.10;99.90;;;;;;4130225;28;20081;-66
2022/07/31 02:33:52;;;;;;;15.85;6.55;;;19.10;99.90;;;;;;4131986;28;20089;-62
2022/07/31 02:35:57;;;;;;;7.00;6.10;;;19.20;99.90;;;;;;4130956;28;20060;-61
2022/07/31 02:37:59;;;;;;;7.88;5.97;;;19.10;99.90;;;;;;4131305;28;20158;-63
2022/07/31 02:40:03;;;;;;;9.15;5.80;;;19.10;99.90;;;;;;4130001;28;20090;-64
2022/07/31 02:42:05;;;;;;;11.07;6.60;;;19.10;99.90;;;;;;4131088;28;20030;-71
2022/07/31 02:44:09;;;;;;;8.82;6.28;;;19.10;99.90;;;;;;4129980;28;20101;-63
2022/07/31 02:46:14;;;;;;;8.73;6.15;;;19.20;99.90;;;;;;4132175;28;20076;-66
2022/07/31 02:48:15;;;;;;;8.68;5.32;;;19.10;99.90;;;;;;4130215;28;20054;-63
2022/07/31 02:50:17;;;;;;;9.13;7.28;;;19.20;99.90;;;;;;4131050;28;20084;-63
2022/07/31 02:52:19;;;;;;;8.38;6.22;;;19.20;99.90;;;;;;4128487;28;20564;-64
2022/07/31 02:54:20;;;;;;;8.70;6.00;;;19.20;99.90;;;;;;4130714;28;20042;-72
2022/07/31 02:56:23;;;;;;;6.32;5.72;;;19.20;99.90;;;;;;4130075;28;20446;-63
2022/07/31 02:58:24;;;;;;;5.70;4.93;;;19.20;99.90;;;;;;4130322;28;20034;-64
2022/07/31 03:00:26;;;;;;;6.72;5.68;;;19.20;99.90;;;;;;4130391;28;20038;-63
2022/07/31 03:02:28;;;;;;;6.47;5.88;;;19.20;99.90;;;;;;4130390;28;20431;-64
2022/07/31 03:04:29;;;;;;;6.22;5.50;;;19.20;99.90;;;;;;4131578;28;20037;-62
2022/07/31 03:06:30;;;;;;;6.25;5.38;;;19.20;99.90;;;;;;4129424;28;20422;-63
2022/07/31 03:08:31;;;;;;;6.63;5.60;;;19.20;99.90;;;;;;4130556;28;20089;-64
2022/07/31 03:10:33;;;;;;;5.60;5.10;;;19.20;99.90;;;;;;4129574;28;20073;-63
2022/07/31 03:12:34;;;;;;;6.07;5.47;;;19.30;99.90;;;;;;4130564;28;20031;-71
2022/07/31 03:14:36;;;;;;;7.95;5.00;;;19.30;99.90;;;;;;4129617;28;20085;-63
2022/07/31 03:16:38;;;;;;;6.70;5.53;;;19.30;99.90;;;;;;4130943;28;20046;-67
2022/07/31 03:18:40;;;;;;;7.88;5.60;;;19.30;99.90;;;;;;4130419;28;20097;-62
2022/07/31 03:20:42;;;;;;;6.25;5.63;;;19.30;99.90;;;;;;4130653;28;20034;-64
2022/07/31 03:22:44;;;;;;;7.85;6.10;;;19.30;99.90;;;;;;4129066;28;20038;-67
2022/07/31 03:24:46;;;;;;;7.15;5.45;;;19.30;99.90;;;;;;4130694;28;20069;-63
2022/07/31 03:26:47;;;;;;;6.47;5.68;;;19.30;99.90;;;;;;4129140;28;20084;-64
2022/07/31 03:28:48;;;;;;;5.78;5.20;;;19.30;99.90;;;;;;4130457;28;20541;-63
2022/07/31 03:30:51;;;;;;;6.82;5.80;;;19.20;99.90;;;;;;4129559;28;20034;-64
2022/07/31 03:32:56;;;;;;;6.45;5.68;;;19.20;99.90;;;;;;4129945;28;20022;-65
2022/07/31 03:34:57;;;;;;;6.88;5.97;;;19.20;99.90;;;;;;4130415;28;20042;-63
2022/07/31 03:36:58;;;;;;;8.55;5.88;;;19.10;99.90;;;;;;4129186;28;20445;-68
2022/07/31 03:38:59;;;;;;;8.60;7.68;;;19.10;99.90;;;;;;4129944;28;20077;-63
2022/07/31 03:41:00;;;;;;;9.07;7.32;;;19.00;99.90;;;;;;4129068;28;20085;-63
2022/07/31 03:43:03;;;;;;;8.32;5.97;;;19.00;99.90;;;;;;4130119;28;20026;-63
2022/07/31 03:45:06;;;;;;;7.03;6.32;;;19.00;99.90;;;;;;4128727;28;20076;-64
2022/07/31 03:47:07;;;;;;;7.65;5.97;;;18.90;99.90;;;;;;4130720;28;20026;-63
2022/07/31 03:49:09;;;;;;;8.05;5.90;;;18.90;99.90;;;;;;4128899;28;20026;-62
2022/07/31 03:51:10;;;;;;;6.82;5.88;;;18.80;99.90;;;;;;4130885;28;20030;-62
2022/07/31 03:53:13;;;;;;;6.20;5.28;;;18.80;99.90;;;;;;4128871;28;20034;-63
2022/07/31 03:55:14;;;;;;;7.72;6.47;;;18.70;99.90;;;;;;4129839;28;20031;-67
2022/07/31 03:57:16;;;;;;;6.47;5.63;;;18.80;99.90;;;;;;4128783;28;20022;-63
2022/07/31 03:59:18;;;;;;;7.63;6.07;;;18.70;99.90;;;;;;4113487;28;20055;-63
2022/07/31 04:01:21;;;;;;;6.68;5.85;;;18.80;99.90;;;;;;4123155;28;20042;-66
2022/07/31 04:03:22;;;;;;;9.30;5.43;;;18.70;99.90;;;;;;4129607;28;20425;-65
2022/07/31 04:05:23;;;;;;;6.20;4.82;;;18.80;99.90;;;;;;4128946;28;20034;-63
2022/07/31 04:07:25;;;;;;;6.88;5.20;;;18.80;99.90;;;;;;4129311;28;20084;-71
2022/07/31 04:09:26;;;;;;;5.60;4.63;;;18.90;99.90;;;;;;4129541;28;20093;-63
2022/07/31 04:11:28;;;;;;;5.38;4.88;;;18.90;99.90;;;;;;4128672;28;20065;-64
2022/07/31 04:13:29;;;;;;;6.28;5.40;;;19.00;99.90;;;;;;4129573;28;20081;-70
2022/07/31 04:15:30;;;;;;;7.35;5.30;;;19.00;99.90;;;;;;4129403;28;20430;-66
2022/07/31 04:17:31;;;;;;;6.03;5.43;;;19.00;99.90;;;;;;4129962;28;20097;-63
2022/07/31 04:19:34;;;;;;;6.78;5.05;;;19.00;99.90;;;;;;4128213;28;20067;-62
2022/07/31 04:21:36;;;;;;;7.57;5.78;;;19.10;99.90;;;;;;4129271;28;20183;-64
2022/07/31 04:23:37;;;;;;;5.95;4.95;;;19.10;99.90;;;;;;4133453;28;20077;-63
2022/07/31 04:25:38;;;;;;;4.75;4.25;;;19.10;99.90;;;;;;4145708;28;20473;-65
2022/07/31 04:27:39;;;;;;;6.72;5.18;;;19.20;99.90;;;;;;4144934;28;20562;-64
2022/07/31 04:29:41;;;;;;;9.02;5.25;;;19.20;99.90;;;;;;4143703;28;20632;-63
2022/07/31 04:31:42;;;;;;;5.65;5.15;;;19.20;99.90;;;;;;4140960;28;20038;-62
2022/07/31 04:33:44;;;;;;;5.82;5.22;;;19.20;99.90;;;;;;4129540;28;20533;-68
2022/07/31 04:35:45;;;;;;;8.13;5.90;;;19.20;99.90;;;;;;4128530;28;20514;-63
2022/07/31 04:37:46;;;;;;;4.65;4.15;;;19.30;99.90;;;;;;4128634;28;20506;-63
2022/07/31 04:39:48;;;;;;;7.22;5.60;;;19.30;99.90;;;;;;4128833;28;20042;-63
2022/07/31 04:41:49;;;;;;;5.57;5.07;;;19.30;99.90;;;;;;4128445;28;20336;-72
2022/07/31 04:43:50;;;;;;;6.07;5.47;;;19.40;99.90;;;;;;4127922;28;20050;-66
2022/07/31 04:45:51;;;;;;;8.88;6.85;;;19.40;99.90;;;;;;4128186;28;20093;-69
2022/07/31 04:47:52;;;;;;;11.45;8.15;;;19.40;99.90;;;;;;4134105;28;20103;-67
2022/07/31 04:49:53;;;;;;;9.85;8.70;;;19.50;99.90;;;;;;4144358;28;20080;-63
2022/07/31 04:51:54;;;;;;;11.63;8.05;;;19.50;99.90;;;;;;4145397;28;20088;-64
2022/07/31 04:53:55;;;;;;;12.00;8.43;;;19.50;99.90;;;;;;4144401;28;20034;-63
2022/07/31 04:58:24;;;;;;;12.27;7.93;;;19.50;99.90;;;;;;4135958;28;20038;-63
2022/07/31 05:00:25;;;;;;;10.20;8.45;;;19.50;99.90;;;;;;4145350;28;20100;-63
2022/07/31 05:02:27;;;;;;;9.73;7.50;;;19.50;99.90;;;;;;4133354;28;20030;-63
2022/07/31 05:04:28;;;;;;;9.35;7.85;;;19.50;99.90;;;;;;4129575;28;20034;-62
2022/07/31 05:06:49;;;;;;;10.02;8.10;;;19.50;99.90;;;;;;4128204;28;20042;-65
2022/07/31 05:08:52;;;;;;;8.68;6.75;;;19.40;99.90;;;;;;4129064;28;20027;-63
2022/07/31 05:13:12;;;;;;;8.63;7.43;;;19.60;99.90;;;;;;4129055;28;20487;-62
2022/07/31 05:15:16;;;;;;;11.32;6.47;;;19.60;99.90;;;;;;4127825;28;20110;-63
2022/07/31 05:17:17;;;;;;;9.82;6.20;;;19.70;99.90;;;;;;4132537;28;20096;-63
2022/07/31 05:19:18;;;;;;;7.82;6.18;;;19.70;99.90;;;;;;4130992;28;20125;-63
2022/07/31 05:21:20;;;;;;;8.38;6.93;;;19.70;99.90;;;;;;4132103;28;20093;-64
2022/07/31 05:23:21;;;;;;;7.45;6.03;;;19.80;99.90;;;;;;4135752;28;20042;-65
2022/07/31 05:25:22;;;;;;;8.93;7.50;;;19.80;99.90;;;;;;4131998;28;20442;-63
2022/07/31 05:27:23;;;;;;;8.80;7.70;;;19.70;99.90;;;;;;4131913;28;20038;-64
2022/07/31 05:29:24;;;;;;;9.25;7.47;;;19.70;99.90;;;;;;4131648;28;20045;-63
2022/07/31 05:31:27;;;;;;;8.88;7.18;;;19.70;99.90;;;;;;4131927;28;20026;-65
2022/07/31 05:33:28;;;;;;;8.13;7.07;;;19.70;99.90;;;;;;4131467;28;20038;-63
2022/07/31 05:35:29;;;;;;;8.77;7.20;;;19.70;99.90;;;;;;4143222;28;20085;-62
2022/07/31 05:37:31;;;;;;;10.15;6.22;;;19.80;99.90;;;;;;4131037;28;20081;-63
2022/07/31 05:39:32;;;;;;;7.47;6.15;;;19.80;99.90;;;;;;4131814;28;20085;-61
2022/07/31 05:41:34;;;;;;;9.73;7.00;;;19.80;99.90;;;;;;4130608;28;20101;-63
2022/07/31 05:43:36;;;;;;;7.65;6.90;;;19.70;99.90;;;;;;4130334;28;20046;-62
2022/07/31 05:45:37;;;;;;;6.80;6.10;;;19.60;99.90;;;;;;4130851;28;20034;-62
2022/07/31 05:47:38;;;;;;;11.65;6.25;;;19.60;99.90;;;;;;4131824;28;20046;-67
2022/07/31 05:49:39;;;;;;;7.40;6.20;;;19.60;99.90;;;;;;4130991;28;20073;-62
2022/07/31 05:51:45;;;;;;;7.00;6.30;;;19.60;99.90;;;;;;4131785;28;20045;-64
2022/07/31 05:53:46;;;;;;;8.27;6.85;;;19.60;99.90;;;;;;4129717;28;20151;-64
2022/07/31 05:55:49;;;;;;;10.68;6.13;;;19.60;99.90;;;;;;4131218;28;20112;-62
2022/07/31 05:57:50;;;;;;;9.32;7.05;;;19.70;99.90;;;;;;4130786;28;20093;-62
2022/07/31 05:59:51;;;;;;;12.27;6.93;;;19.80;99.90;;;;;;4130599;28;20093;-68
2022/07/31 06:01:52;;;;;;;8.63;6.57;;;19.90;99.90;;;;;;4130713;28;20573;-71
2022/07/31 06:03:54;;;;;;;7.53;5.93;;;19.90;99.90;;;;;;4131036;28;20053;-69
2022/07/31 06:05:55;;;;;;;8.90;7.03;;;20.00;99.90;;;;;;4131324;28;20081;-63
2022/07/31 06:07:57;;;;;;;7.80;6.57;;;20.00;99.90;;;;;;4131315;28;20038;-63
2022/07/31 06:09:59;;;;;;;8.90;6.22;;;20.00;99.90;;;;;;4130394;28;20046;-71
2022/07/31 06:12:00;;;;;;;7.07;5.72;;;20.00;99.90;;;;;;4130103;28;20913;-63
2022/07/31 06:14:01;;;;;;;6.63;6.00;;;20.10;99.90;;;;;;4125970;28;20701;-61
2022/07/31 06:16:02;;;;;;;5.95;5.45;;;20.20;99.90;;;;;;4119925;28;20562;-61
2022/07/31 06:18:03;;;;;;;7.78;6.10;;;20.20;99.90;;;;;;4129360;28;20050;-62
2022/07/31 06:20:05;;;;;;;7.57;6.38;;;20.40;99.90;;;;;;4130431;28;20601;-62
2022/07/31 06:22:07;;;;;;;11.70;9.88;;;20.50;99.90;;;;;;4131475;28;20135;-61
2022/07/31 06:24:08;;;;;;;7.60;6.32;;;20.60;99.90;;;;;;4140844;28;20047;-61
2022/07/31 06:26:10;;;;;;;10.70;6.13;;;20.80;99.90;;;;;;4131625;28;20479;-63
2022/07/31 06:28:12;;;;;;;8.38;6.03;;;21.30;99.90;;;;;;4137192;28;20038;-62
2022/07/31 06:30:13;;;;;;;9.13;5.53;;;21.90;99.90;;;;;;4131204;28;20434;-60
2022/07/31 06:32:15;;;;;;;7.75;5.22;;;22.60;99.90;;;;;;4130728;28;20458;-60
2022/07/31 06:34:16;;;;;;;10.60;5.80;;;23.40;99.90;;;;;;4130585;28;20108;-67
2022/07/31 06:36:17;;;;;;;6.30;5.78;;;24.00;99.90;;;;;;4130422;28;20038;-60
2022/07/31 06:38:18;;;;;;;10.27;6.22;;;24.50;99.90;;;;;;4129666;28;20042;-60
2022/07/31 06:40:20;;;;;;;8.95;5.18;;;25.00;99.90;;;;;;4131705;28;20089;-63
2022/07/31 06:42:22;;;;;;;6.85;5.35;;;25.50;99.90;;;;;;4129040;28;20089;-60
2022/07/31 06:44:23;;;;;;;13.93;8.07;;;26.00;99.90;;;;;;4131241;28;20487;-61
2022/07/31 06:46:24;;;;;;;24.13;8.60;;;25.90;99.90;;;;;;4129943;28;20104;-64
2022/07/31 06:48:25;;;;;;;18.85;8.55;;;25.40;99.90;;;;;;4131159;28;20089;-63
2022/07/31 06:50:26;;;;;;;24.20;9.00;;;25.30;99.90;;;;;;4130685;28;20045;-64
2022/07/31 06:52:27;;;;;;;33.30;9.43;;;25.40;99.90;;;;;;4130936;28;20097;-63
2022/07/31 06:54:29;;;;;;;21.95;9.75;;;25.20;99.90;;;;;;4130725;28;20034;-62
2022/07/31 06:56:30;;;;;;;18.90;8.25;;;25.00;99.90;;;;;;4130802;28;20545;-63
2022/07/31 06:58:32;;;;;;;18.17;7.57;;;24.90;99.90;;;;;;4126792;28;20474;-62
2022/07/31 07:00:33;;;;;;;20.15;8.13;;;24.90;99.90;;;;;;4113915;28;20570;-66
2022/07/31 07:02:35;;;;;;;18.58;6.55;;;25.10;99.90;;;;;;4114356;28;20031;-65
2022/07/31 07:04:36;;;;;;;17.52;5.55;;;24.80;99.90;;;;;;4114299;28;20042;-65
2022/07/31 07:06:37;;;;;;;22.02;7.18;;;24.60;99.90;;;;;;4114977;28;20416;-65
2022/07/31 07:08:39;;;;;;;12.43;5.65;;;24.20;99.90;;;;;;4121311;28;20108;-66
2022/07/31 07:10:41;;;;;;;11.20;5.40;;;24.30;99.90;;;;;;4146908;28;20541;-63
2022/07/31 07:12:42;;;;;;;22.45;6.75;;;24.70;99.90;;;;;;4144992;28;20038;-64
2022/07/31 07:14:43;;;;;;;23.75;6.75;;;24.80;99.90;;;;;;4146946;28;20050;-65
2022/07/31 07:16:44;;;;;;;27.67;8.20;;;24.90;99.90;;;;;;4145368;28;20080;-66
2022/07/31 07:18:45;;;;;;;7.88;4.30;;;25.50;99.90;;;;;;4142804;28;20043;-63
2022/07/31 07:20:48;;;;;;;9.00;4.72;;;25.60;99.90;;;;;;4144564;28;20053;-65
2022/07/31 07:22:49;;;;;;;8.75;4.38;;;25.60;99.90;;;;;;4145256;28;20482;-66
2022/07/31 07:24:50;;;;;;;6.25;4.30;;;25.60;99.90;;;;;;4130296;28;20042;-65
2022/07/31 07:26:52;;;;;;;6.15;4.70;;;25.80;99.90;;;;;;4130248;28;20042;-66
2022/07/31 07:28:53;;;;;;;7.40;5.78;;;26.30;99.90;;;;;;4129190;28;20050;-66
2022/07/31 07:30:54;;;;;;;8.52;5.57;;;26.20;99.90;;;;;;4130025;28;20095;-67
2022/07/31 07:32:55;;;;;;;5.50;5.00;;;26.00;99.90;;;;;;4129563;28;20038;-64
2022/07/31 07:34:56;;;;;;;5.43;4.93;;;25.90;99.90;;;;;;4129889;28;20090;-64
2022/07/31 07:36:58;;;;;;;8.20;5.32;;;25.50;99.90;;;;;;4130715;28;20639;-67
2022/07/31 07:38:59;;;;;;;8.55;5.15;;;25.30;99.90;;;;;;4128560;28;20038;-66
2022/07/31 07:41:00;;;;;;;8.10;5.15;;;25.60;99.90;;;;;;4132404;28;20108;-66
2022/07/31 07:43:01;;;;;;;8.38;4.97;;;25.90;99.90;;;;;;4144947;28;20037;-67
2022/07/31 07:45:03;;;;;;;7.15;4.93;;;25.70;99.90;;;;;;4146529;28;20030;-66
2022/07/31 07:47:04;;;;;;;5.93;5.38;;;25.90;99.90;;;;;;4144929;28;20124;-67
2022/07/31 07:49:05;;;;;;;7.57;4.78;;;26.20;99.90;;;;;;4146129;28;20037;-65
2022/07/31 07:51:06;;;;;;;6.97;5.30;;;25.90;99.90;;;;;;4144811;28;20018;-65
2022/07/31 07:53:07;;;;;;;8.82;5.13;;;25.70;99.90;;;;;;4146223;28;20029;-66
2022/07/31 07:55:11;;;;;;;6.30;4.80;;;25.70;99.90;;;;;;4144965;28;20137;-63
2022/07/31 07:57:17;;;;;;;5.00;4.30;;;25.60;99.90;;;;;;4145332;28;20087;-64
2022/07/31 07:59:18;;;;;;;5.85;3.05;;;25.70;99.90;;;;;;4144694;28;20378;-71
2022/07/31 08:01:19;;;;;;;5.43;2.80;;;25.80;99.90;;;;;;4146112;28;20042;-64
2022/07/31 08:03:20;;;;;;;4.80;3.45;;;25.80;99.90;;;;;;4144832;28;20034;-70
2022/07/31 08:05:21;;;;;;;9.48;3.45;;;26.00;99.90;;;;;;4137845;28;20105;-66
2022/07/31 08:07:30;;;;;;;3.85;3.22;;;26.30;99.90;;;;;;4127476;28;20081;-65
2022/07/31 08:09:33;;;;;;;7.78;2.75;;;26.50;99.90;;;;;;4129372;28;20479;-62
2022/07/31 08:11:34;;;;;;;3.95;2.70;;;26.40;99.90;;;;;;4129151;28;20034;-63
2022/07/31 08:13:35;;;;;;;2.30;2.08;;;26.40;99.90;;;;;;4128506;28;20081;-65
2022/07/31 08:15:36;;;;;;;2.10;2.00;;;26.50;99.90;;;;;;4127510;28;20132;-62
2022/07/31 08:17:37;;;;;;;3.75;2.53;;;26.40;99.90;;;;;;4130835;28;20096;-68
2022/07/31 08:19:39;;;;;;;4.50;2.67;;;26.20;99.90;;;;;;4129805;28;20302;-63
2022/07/31 08:21:40;;;;;;;4.15;1.83;;;26.30;99.90;;;;;;4127855;28;20026;-63
2022/07/31 08:23:41;;;;;;;2.63;1.90;;;26.20;99.90;;;;;;4129052;28;20027;-66
2022/07/31 08:25:42;;;;;;;4.53;1.65;;;26.30;99.90;;;;;;4128160;28;20116;-64
2022/07/31 08:27:43;;;;;;;1.60;1.50;;;26.40;99.90;;;;;;4129470;28;20506;-62
2022/07/31 08:29:45;;;;;;;3.85;1.83;;;26.60;99.90;;;;;;4127850;28;20022;-65
2022/07/31 08:31:46;;;;;;;1.70;1.60;;;26.50;99.90;;;;;;4129031;28;20034;-66
2022/07/31 08:33:47;;;;;;;1.60;1.50;;;26.40;99.90;;;;;;4128123;28;20034;-63
2022/07/31 08:35:49;;;;;;;1.98;1.77;;;26.20;99.90;;;;;;4128720;28;20054;-69
2022/07/31 08:37:51;;;;;;;3.00;2.58;;;25.80;99.90;;;;;;4126924;28;20042;-71
2022/07/31 08:39:52;;;;;;;2.85;2.65;;;25.50;99.90;;;;;;4139460;28;20053;-66
2022/07/31 08:41:53;;;;;;;2.15;2.00;;;25.60;99.90;;;;;;4144490;28;20096;-64
2022/07/31 08:43:55;;;;;;;2.33;2.08;;;25.60;99.90;;;;;;4144439;28;20034;-66
2022/07/31 08:46:01;;;;;;;5.72;3.05;;;25.70;99.90;;;;;;4144825;28;20437;-64
2022/07/31 08:48:04;;;;;;;4.13;2.42;;;26.00;99.90;;;;;;4143828;28;20103;-64
2022/07/31 08:50:07;;;;;;;2.38;2.10;;;26.50;99.90;;;;;;4144708;28;20108;-65
2022/07/31 08:52:11;;;;;;;1.85;1.73;;;26.60;99.90;;;;;;4140151;28;20042;-64
2022/07/31 08:54:12;;;;;;;1.50;1.40;;;26.50;99.90;;;;;;4133653;28;20017;-61
2022/07/31 08:56:14;;;;;;;2.08;1.58;;;26.50;99.60;;;;;;4127585;28;20030;-67
2022/07/31 08:58:17;;;;;;;2.08;1.52;;;26.70;99.30;;;;;;4128812;28;20042;-63
2022/07/31 09:00:21;;;;;;;2.70;1.30;;;27.20;99.00;;;;;;4115814;28;20113;-63
2022/07/31 09:02:22;;;;;;;1.75;1.65;;;27.60;98.50;;;;;;4112422;28;20089;-63
2022/07/31 09:04:24;;;;;;;1.90;1.70;;;27.70;98.10;;;;;;4112235;28;20109;-63
2022/07/31 09:06:25;;;;;;;2.75;1.70;;;27.90;98.00;;;;;;4112901;28;20054;-65
2022/07/31 09:08:30;;;;;;;3.20;1.70;;;27.90;97.40;;;;;;4111516;28;20431;-66
2022/07/31 09:10:31;;;;;;;1.90;1.80;;;28.00;97.60;;;;;;4112605;28;20105;-63
2022/07/31 09:12:32;;;;;;;1.10;1.00;;;27.90;96.80;;;;;;4111878;28;20031;-66
2022/07/31 09:14:35;;;;;;;3.10;1.73;;;27.90;96.30;;;;;;4128562;28;20084;-66
2022/07/31 09:16:49;;;;;;;1.67;1.30;;;28.00;95.80;;;;;;4132781;28;20415;-67
2022/07/31 09:19:04;;;;;;;1.40;1.30;;;28.00;93.30;;;;;;4128072;28;20046;-71
2022/07/31 09:21:06;;;;;;;1.50;1.40;;;28.10;93.40;;;;;;4126489;28;20046;-70
2022/07/31 09:23:09;;;;;;;1.70;1.17;;;27.90;93.40;;;;;;4127807;28;20071;-65
2022/07/31 09:25:15;;;;;;;3.53;1.27;;;27.70;93.30;;;;;;4125500;28;20101;-70
2022/07/31 09:27:16;;;;;;;1.10;0.80;;;27.50;93.00;;;;;;4144171;28;20082;-69
2022/07/31 09:29:17;;;;;;;1.77;1.40;;;27.30;92.70;;;;;;4144631;28;20034;-69
2022/07/31 09:31:19;;;;;;;1.27;1.17;;;27.10;92.60;;;;;;4143772;28;20026;-72
2022/07/31 09:33:20;;;;;;;1.27;1.17;;;27.10;92.60;;;;;;4145060;28;20104;-73
2022/07/31 09:35:22;;;;;;;2.50;1.40;;;27.20;92.80;;;;;;4143924;28;20138;-72
2022/07/31 09:37:25;;;;;;;4.47;1.73;;;27.40;92.60;;;;;;4144526;28;20049;-68
2022/07/31 09:39:26;;;;;;;1.20;1.10;;;27.70;91.90;;;;;;4143288;28;20307;-67
2022/07/31 09:41:27;;;;;;;1.73;1.20;;;28.00;91.70;;;;;;4143914;28;20397;-67
2022/07/31 09:43:28;;;;;;;3.25;1.20;;;28.00;91.00;;;;;;4143670;28;20026;-67
2022/07/31 09:45:29;;;;;;;1.00;1.00;;;28.20;90.80;;;;;;4144982;28;20116;-73
2022/07/31 09:47:31;;;;;;;1.13;1.02;;;28.40;90.50;;;;;;4143563;28;20112;-67
2022/07/31 09:49:33;;;;;;;1.17;1.13;;;28.50;89.80;;;;;;4144600;28;20096;-67
2022/07/31 09:51:39;;;;;;;2.95;1.23;;;28.60;89.50;;;;;;4138450;28;20093;-68
2022/07/31 09:53:42;;;;;;;1.55;0.98;;;28.50;87.50;;;;;;4128142;28;20096;-65
2022/07/31 09:55:51;;;;;;;1.33;1.23;;;28.30;88.30;;;;;;4127433;28;20035;-66
2022/07/31 09:58:00;;;;;;;1.25;1.15;;;28.20;87.10;;;;;;4129624;28;20030;-66
2022/07/31 10:00:09;;;;;;;1.00;0.98;;;28.10;87.80;;;;;;4143729;28;20587;-66
2022/07/31 10:02:13;;;;;;;2.42;0.90;;;28.30;87.20;;;;;;4135771;28;20035;-70
2022/07/31 10:04:20;;;;;;;1.48;1.23;;;28.50;86.30;;;;;;4131585;28;20030;-67
2022/07/31 10:06:24;;;;;;;1.75;1.17;;;28.60;85.20;;;;;;4130579;28;20034;-67
2022/07/31 10:08:25;;;;;;;1.15;1.10;;;28.90;85.10;;;;;;4129469;28;20553;-65
2022/07/31 10:10:29;;;;;;;2.67;0.93;;;29.00;84.90;;;;;;4129881;28;20121;-65
2022/07/31 10:12:32;;;;;;;1.27;1.10;;;29.00;84.00;;;;;;4130920;28;20101;-66
2022/07/31 10:14:39;;;;;;;1.60;1.00;;;29.00;83.70;;;;;;4130286;28;20557;-66
2022/07/31 10:16:42;;;;;;;1.00;1.00;;;29.00;83.20;;;;;;4131112;28;20171;-72
2022/07/31 10:18:48;;;;;;;1.60;1.20;;;28.90;82.70;;;;;;4132554;28;20018;-68
2022/07/31 10:20:53;;;;;;;1.13;1.02;;;28.80;82.80;;;;;;4147305;28;20037;-68
2022/07/31 10:23:15;;;;;;;1.13;1.05;;;28.90;82.60;;;;;;4145953;28;20387;-66
2022/07/31 10:25:26;;;;;;;2.30;1.10;;;28.80;80.70;;;;;;4112815;28;20093;-66
2022/07/31 10:27:28;;;;;;;1.70;1.00;;;28.60;81.90;;;;;;4113865;28;20082;-68
2022/07/31 10:29:30;;;;;;;0.80;0.80;;;28.50;82.40;;;;;;4115023;28;20575;-71
2022/07/31 10:31:32;;;;;;;1.85;1.33;;;28.30;82.80;;;;;;4122267;28;20026;-67
2022/07/31 10:33:34;;;;;;;0.95;0.95;;;28.20;82.70;;;;;;4131121;28;20549;-67
2022/07/31 10:35:43;;;;;;;1.27;0.95;;;28.10;82.30;;;;;;4122845;28;20043;-67
2022/07/31 10:37:47;;;;;;;2.80;1.30;;;28.00;82.40;;;;;;4115296;28;20558;-65
2022/07/31 10:39:55;;;;;;;1.08;1.08;;;28.10;82.30;;;;;;4114209;28;20070;-67
2022/07/31 10:42:11;;;;;;;1.48;1.38;;;28.10;82.30;;;;;;4139470;28;20041;-67